createdAt,value
2024-03-03T00:00:35.502Z,84.40
2024-03-03T00:03:10.917Z,83.92
2024-03-03T00:05:44.579Z,83.90
2024-03-03T00:08:17.350Z,83.23
2024-03-03T00:10:51.419Z,84.07
2024-03-03T00:13:26.051Z,83.65
2024-03-03T00:15:59.126Z,83.85
2024-03-03T00:18:31.968Z,83.41
2024-03-03T00:21:06.311Z,83.14
2024-03-03T00:23:38.989Z,83.30
2024-03-03T00:26:11.899Z,83.55
2024-03-03T00:28:44.886Z,84.14
2024-03-03T00:31:20.001Z,84.02
2024-03-03T00:33:52.878Z,84.03
2024-03-03T00:36:25.694Z,84.31
2024-03-03T00:38:58.359Z,84.83
2024-03-03T00:41:31.196Z,85.26
2024-03-03T00:44:04.463Z,85.15
2024-03-03T00:46:37.253Z,84.75
2024-03-03T00:49:09.963Z,85.18
2024-03-03T00:51:42.676Z,86.11
2024-03-03T00:54:15.313Z,87.05
2024-03-03T00:56:47.967Z,86.93
2024-03-03T00:59:20.917Z,87.55
2024-03-03T01:01:53.615Z,87.54
2024-03-03T01:04:26.252Z,88.12
2024-03-03T01:06:58.969Z,88.36
2024-03-03T01:09:31.677Z,89.18
2024-03-03T01:12:04.825Z,90.74
2024-03-03T01:14:37.489Z,90.81
2024-03-03T01:17:13.003Z,91.62
2024-03-03T01:19:46.791Z,90.92
2024-03-03T01:22:28.880Z,91.29
2024-03-03T01:25:01.643Z,91.38
2024-03-03T01:27:34.693Z,91.05
2024-03-03T01:30:08.752Z,92.06
2024-03-03T01:32:41.410Z,92.64
2024-03-03T01:35:14.136Z,93.21
2024-03-03T01:37:46.771Z,94.29
2024-03-03T01:40:19.550Z,94.20
2024-03-03T01:42:59.324Z,94.12
2024-03-03T01:45:32.064Z,94.09
2024-03-03T01:48:05.294Z,94.09
2024-03-03T01:50:39.993Z,94.17
2024-03-03T01:53:14.136Z,93.62
2024-03-03T01:55:48.093Z,93.90
2024-03-03T01:58:24.536Z,93.78
2024-03-03T02:01:07.164Z,93.65
2024-03-03T02:03:40.715Z,93.40
2024-03-03T02:06:18.736Z,93.65
2024-03-03T02:08:51.842Z,93.36
2024-03-03T02:11:24.597Z,93.38
2024-03-03T02:13:57.513Z,94.14
2024-03-03T02:16:30.210Z,93.80
2024-03-03T02:19:03.200Z,93.63
2024-03-03T02:21:36.017Z,93.56
2024-03-03T02:24:08.681Z,93.77
2024-03-03T02:26:41.350Z,94.45
2024-03-03T02:29:15.755Z,94.50
2024-03-03T02:31:50.255Z,94.75
2024-03-03T02:34:23.346Z,93.64
2024-03-03T02:37:02.470Z,94.01
2024-03-03T02:39:35.239Z,94.02
2024-03-03T02:42:08.046Z,94.79
2024-03-03T02:44:40.654Z,94.54
2024-03-03T02:47:13.513Z,94.92
2024-03-03T02:49:46.189Z,94.84
2024-03-03T02:52:19.159Z,94.96
2024-03-03T02:54:51.913Z,96.30
2024-03-03T02:57:24.587Z,95.34
2024-03-03T02:59:57.303Z,95.38
2024-03-03T03:02:31.119Z,94.39
2024-03-03T03:05:04.493Z,94.17
2024-03-03T03:07:37.197Z,94.06
2024-03-03T03:10:18.076Z,94.83
2024-03-03T03:12:50.935Z,95.79
2024-03-03T03:15:23.941Z,96.70
2024-03-03T03:17:56.647Z,96.64
2024-03-03T03:20:29.360Z,96.96
2024-03-03T03:23:01.990Z,96.97
2024-03-03T03:25:35.179Z,97.58
2024-03-03T03:28:14.118Z,97.10
2024-03-03T03:30:46.811Z,96.13
2024-03-03T03:33:19.538Z,97.19
2024-03-03T03:35:52.276Z,97.55
2024-03-03T03:38:24.921Z,98.02
2024-03-03T03:40:57.573Z,98.63
2024-03-03T03:43:30.712Z,99.32
2024-03-03T03:46:03.459Z,99.87
2024-03-03T03:48:36.151Z,100.00
2024-03-03T03:51:09.100Z,100.00
2024-03-03T03:53:41.751Z,100.00
2024-03-03T03:56:21.669Z,100.00
2024-03-03T03:58:54.504Z,100.00
2024-03-03T04:01:29.747Z,100.00
2024-03-03T04:04:02.830Z,100.00
2024-03-03T04:06:35.570Z,100.00
2024-03-03T04:09:08.311Z,100.00
2024-03-03T04:12:00.651Z,100.00
2024-03-03T04:14:33.446Z,100.00
2024-03-03T04:17:10.335Z,100.00
2024-03-03T04:19:43.002Z,100.00
2024-03-03T04:22:15.781Z,100.00
2024-03-03T04:24:48.598Z,100.00
2024-03-03T04:27:22.450Z,100.00
2024-03-03T04:29:55.085Z,100.00
2024-03-03T04:32:34.029Z,100.00
2024-03-03T04:35:07.133Z,100.00
2024-03-03T04:37:39.794Z,100.00
2024-03-03T04:40:12.524Z,100.00
2024-03-03T04:42:47.263Z,100.00
2024-03-03T04:45:20.234Z,100.00
2024-03-03T04:47:52.968Z,100.00
2024-03-03T04:50:25.608Z,100.00
2024-03-03T04:52:58.386Z,100.00
2024-03-03T04:55:31.389Z,100.00
2024-03-03T04:58:06.169Z,100.00
2024-03-03T05:00:38.837Z,100.00
2024-03-03T05:03:12.380Z,100.00
2024-03-03T05:05:45.069Z,99.70
2024-03-03T05:08:19.949Z,100.00
2024-03-03T05:10:52.841Z,100.00
2024-03-03T05:13:26.683Z,100.00
2024-03-03T05:15:59.922Z,100.00
2024-03-03T05:18:33.619Z,100.00
2024-03-03T05:21:06.266Z,100.00
2024-03-03T05:23:54.440Z,100.00
2024-03-03T05:26:27.651Z,100.00
2024-03-03T05:29:00.356Z,100.00
2024-03-03T05:31:42.176Z,100.00
2024-03-03T05:34:16.420Z,100.00
2024-03-03T05:36:49.546Z,100.00
2024-03-03T05:39:22.909Z,100.00
2024-03-03T05:41:59.405Z,100.00
2024-03-03T05:44:35.408Z,100.00
2024-03-03T05:47:10.520Z,100.00
2024-03-03T05:49:44.267Z,100.00
2024-03-03T05:52:17.047Z,100.00
2024-03-03T05:54:49.802Z,100.00
2024-03-03T05:57:22.593Z,100.00
2024-03-03T05:59:55.338Z,100.00
2024-03-03T06:02:28.057Z,100.00
2024-03-03T06:05:00.743Z,100.00
2024-03-03T06:07:33.511Z,100.00
2024-03-03T06:10:06.748Z,100.00
2024-03-03T06:12:39.499Z,100.00
2024-03-03T06:15:12.330Z,100.00
2024-03-03T06:17:45.067Z,100.00
2024-03-03T06:20:27.435Z,100.00
2024-03-03T06:23:00.050Z,100.00
2024-03-03T06:25:33.148Z,100.00
2024-03-03T06:28:16.185Z,100.00
2024-03-03T06:30:48.959Z,100.00
2024-03-03T06:33:22.097Z,100.00
2024-03-03T06:35:54.907Z,100.00
2024-03-03T06:38:27.852Z,100.00
2024-03-03T06:41:00.551Z,100.00
2024-03-03T06:43:33.282Z,100.00
2024-03-03T06:46:06.023Z,100.00
2024-03-03T06:48:39.793Z,100.00
2024-03-03T06:51:14.038Z,100.00
2024-03-03T06:53:46.747Z,100.00
2024-03-03T06:56:19.707Z,100.00
2024-03-03T06:58:52.357Z,100.00
2024-03-03T07:01:25.111Z,100.00
2024-03-03T07:04:16.498Z,100.00
2024-03-03T07:06:49.192Z,100.00
2024-03-03T07:09:25.130Z,100.00
2024-03-03T07:11:59.137Z,100.00
2024-03-03T07:14:33.647Z,100.00
2024-03-03T07:17:06.206Z,100.00
2024-03-03T07:19:38.909Z,100.00
2024-03-03T07:22:11.789Z,100.00
2024-03-03T07:24:44.471Z,100.00
2024-03-03T07:27:17.152Z,100.00
2024-03-03T07:29:49.808Z,100.00
2024-03-03T07:32:23.134Z,100.00
2024-03-03T07:34:59.370Z,100.00
2024-03-03T07:37:33.022Z,100.00
2024-03-03T07:40:12.831Z,100.00
2024-03-03T07:42:45.598Z,100.00
2024-03-03T07:45:18.447Z,100.00
2024-03-03T07:47:51.163Z,100.00
2024-03-03T07:50:23.891Z,100.00
2024-03-03T07:52:56.650Z,100.00
2024-03-03T07:55:30.721Z,100.00
2024-03-03T07:58:04.158Z,100.00
2024-03-03T08:00:37.929Z,100.00
2024-03-03T08:03:11.103Z,100.00
2024-03-03T08:05:43.836Z,100.00
2024-03-03T08:08:16.638Z,100.00
2024-03-03T08:10:49.587Z,100.00
2024-03-03T08:13:22.313Z,100.00
2024-03-03T08:15:55.640Z,100.00
2024-03-03T08:18:28.559Z,100.00
2024-03-03T08:21:03.234Z,100.00
2024-03-03T08:23:35.922Z,100.00
2024-03-03T08:26:12.659Z,100.00
2024-03-03T08:28:45.427Z,100.00
2024-03-03T08:31:19.777Z,99.89
2024-03-03T08:33:52.502Z,100.00
2024-03-03T08:36:25.339Z,98.68
2024-03-03T08:38:58.353Z,98.36
2024-03-03T08:41:38.777Z,98.01
2024-03-03T08:44:11.521Z,97.58
2024-03-03T08:46:44.256Z,96.00
2024-03-03T08:49:27.272Z,95.68
2024-03-03T08:52:00.281Z,97.94
2024-03-03T08:54:33.636Z,97.55
2024-03-03T08:57:10.396Z,97.88
2024-03-03T08:59:56.588Z,94.91
2024-03-03T09:02:29.492Z,93.65
2024-03-03T09:05:02.891Z,94.88
2024-03-03T09:07:37.396Z,90.78
2024-03-03T09:10:19.313Z,93.99
2024-03-03T09:12:52.003Z,91.28
2024-03-03T09:15:24.779Z,90.60
2024-03-03T09:17:57.992Z,90.04
2024-03-03T09:20:30.691Z,91.18
2024-03-03T09:23:03.811Z,91.81
2024-03-03T09:25:36.579Z,92.51
2024-03-03T09:28:21.762Z,92.74
2024-03-03T09:30:55.954Z,92.18
2024-03-03T09:33:28.795Z,89.14
2024-03-03T09:36:01.762Z,89.58
2024-03-03T09:38:37.670Z,89.73
2024-03-03T09:41:10.750Z,87.50
2024-03-03T09:43:49.773Z,87.99
2024-03-03T09:46:28.380Z,86.45
2024-03-03T09:49:04.080Z,88.45
2024-03-03T09:51:42.239Z,86.64
2024-03-03T09:54:19.781Z,84.88
2024-03-03T09:56:54.498Z,83.60
2024-03-03T09:59:27.276Z,81.64
2024-03-03T10:02:00.464Z,83.84
2024-03-03T10:04:36.107Z,83.85
2024-03-03T10:07:12.831Z,82.80
2024-03-03T10:09:57.489Z,82.56
2024-03-03T10:12:32.975Z,86.43
2024-03-03T10:15:09.550Z,82.23
2024-03-03T10:17:42.450Z,84.40
2024-03-03T10:20:15.383Z,83.68
2024-03-03T10:22:48.562Z,83.46
2024-03-03T10:25:23.304Z,84.39
2024-03-03T10:28:14.535Z,85.37
2024-03-03T10:30:47.574Z,83.39
2024-03-03T10:33:27.173Z,83.21
2024-03-03T10:36:12.143Z,81.46
2024-03-03T10:38:57.226Z,78.45
2024-03-03T10:41:30.115Z,78.54
2024-03-03T10:44:03.341Z,74.27
2024-03-03T10:46:39.075Z,74.48
2024-03-03T10:49:15.050Z,72.60
2024-03-03T10:51:48.874Z,73.14
2024-03-03T10:54:24.170Z,69.50
2024-03-03T10:56:57.655Z,69.17
2024-03-03T10:59:46.925Z,69.86
2024-03-03T11:02:22.779Z,66.05
2024-03-03T11:05:05.430Z,67.58
2024-03-03T11:07:39.194Z,64.48
2024-03-03T11:10:13.531Z,66.02
2024-03-03T11:12:51.917Z,63.64
2024-03-03T11:15:27.590Z,62.81
2024-03-03T11:18:18.946Z,66.51
2024-03-03T11:20:57.554Z,60.79
2024-03-03T11:23:59.432Z,63.14
2024-03-03T11:26:44.079Z,60.03
2024-03-03T11:29:21.004Z,60.62
2024-03-03T11:31:54.253Z,59.88
2024-03-03T11:34:27.565Z,58.19
2024-03-03T11:37:02.108Z,56.60
2024-03-03T11:39:34.899Z,55.35
2024-03-03T11:42:34.119Z,59.03
2024-03-03T11:45:08.491Z,55.98
2024-03-03T11:47:57.252Z,54.50
2024-03-03T11:50:31.367Z,54.04
2024-03-03T11:53:04.086Z,59.71
2024-03-03T11:55:40.313Z,54.47
2024-03-03T11:58:17.610Z,52.00
2024-03-03T12:01:11.294Z,53.38
2024-03-03T12:03:45.447Z,54.34
2024-03-03T12:06:25.866Z,56.35
2024-03-03T12:09:05.969Z,53.47
2024-03-03T12:11:42.973Z,53.42
2024-03-03T12:14:15.923Z,53.84
2024-03-03T12:16:59.032Z,52.61
2024-03-03T12:19:36.095Z,54.35
2024-03-03T12:22:09.368Z,51.96
2024-03-03T12:24:42.078Z,53.33
2024-03-03T12:27:14.854Z,53.58
2024-03-03T12:30:02.211Z,55.18
2024-03-03T12:32:34.941Z,52.74
2024-03-03T12:35:09.885Z,53.43
2024-03-03T12:37:42.969Z,50.72
2024-03-03T12:40:19.114Z,51.05
2024-03-03T12:42:52.907Z,51.27
2024-03-03T12:45:26.203Z,51.52
2024-03-03T12:47:58.991Z,53.08
2024-03-03T12:50:31.751Z,51.64
2024-03-03T12:53:07.616Z,51.35
2024-03-03T12:55:43.500Z,51.68
2024-03-03T12:58:16.664Z,50.80
2024-03-03T13:00:51.274Z,51.67
2024-03-03T13:03:23.987Z,52.20
2024-03-03T13:05:56.668Z,51.95
2024-03-03T13:08:30.579Z,51.44
2024-03-03T13:11:03.360Z,49.32
2024-03-03T13:13:36.170Z,49.68
2024-03-03T13:16:13.548Z,48.50
2024-03-03T13:19:02.772Z,46.90
2024-03-03T13:21:37.599Z,47.46
2024-03-03T13:24:14.482Z,47.24
2024-03-03T13:26:47.320Z,48.85
2024-03-03T13:29:20.108Z,48.29
2024-03-03T13:31:53.938Z,49.05
2024-03-03T13:34:26.693Z,48.87
2024-03-03T13:36:59.367Z,50.16
2024-03-03T13:39:32.092Z,51.35
2024-03-03T13:42:13.079Z,50.45
2024-03-03T13:44:46.603Z,50.70
2024-03-03T13:47:19.438Z,50.49
2024-03-03T13:49:52.219Z,51.50
2024-03-03T13:52:25.327Z,50.84
2024-03-03T13:54:58.001Z,50.04
2024-03-03T13:57:35.797Z,51.42
2024-03-03T14:00:15.740Z,51.80
2024-03-03T14:02:48.627Z,51.25
2024-03-03T14:05:21.412Z,52.03
2024-03-03T14:07:54.446Z,50.68
2024-03-03T14:10:27.842Z,54.21
2024-03-03T14:13:12.980Z,54.16
2024-03-03T14:15:48.484Z,55.03
2024-03-03T14:18:21.271Z,55.48
2024-03-03T14:20:54.125Z,55.66
2024-03-03T14:23:32.023Z,55.96
2024-03-03T14:26:04.968Z,55.27
2024-03-03T14:28:37.908Z,57.16
2024-03-03T14:31:10.594Z,56.35
2024-03-03T14:33:43.341Z,53.96
2024-03-03T14:36:17.202Z,54.69
2024-03-03T14:38:50.388Z,54.06
2024-03-03T14:41:23.193Z,52.22
2024-03-03T14:43:57.982Z,51.93
2024-03-03T14:46:32.430Z,52.08
2024-03-03T14:49:06.540Z,50.92
2024-03-03T14:51:39.374Z,50.30
2024-03-03T14:54:14.123Z,51.59
2024-03-03T14:56:58.686Z,50.32
2024-03-03T14:59:31.889Z,50.91
2024-03-03T15:02:08.346Z,50.59
2024-03-03T15:04:51.625Z,50.91
2024-03-03T15:07:25.269Z,52.38
2024-03-03T15:13:10.403Z,50.34
2024-03-03T15:15:43.302Z,52.31
2024-03-03T15:18:19.574Z,52.84
2024-03-03T15:20:52.318Z,55.14
2024-03-03T15:23:25.648Z,57.95
2024-03-03T15:25:59.766Z,59.41
2024-03-03T15:28:32.654Z,60.76
2024-03-03T15:31:27.155Z,61.84
2024-03-03T15:34:00.915Z,64.38
2024-03-03T15:36:43.490Z,66.29
2024-03-03T15:39:17.332Z,66.68
2024-03-03T15:41:52.187Z,68.83
2024-03-03T15:45:10.985Z,67.44
2024-03-03T15:47:46.967Z,68.89
2024-03-03T15:50:21.931Z,69.96
2024-03-03T15:52:54.638Z,69.31
2024-03-03T15:55:27.674Z,69.53
2024-03-03T15:58:04.005Z,70.20
2024-03-03T16:00:39.017Z,69.77
2024-03-03T16:03:11.770Z,68.87
2024-03-03T16:05:48.811Z,69.16
2024-03-03T16:08:21.689Z,68.70
2024-03-03T16:10:54.936Z,69.80
2024-03-03T16:13:29.446Z,69.66
2024-03-03T16:16:02.499Z,70.19
2024-03-03T16:18:35.383Z,71.40
2024-03-03T16:21:11.398Z,70.25
2024-03-03T16:23:44.699Z,70.92
2024-03-03T16:26:18.764Z,71.16
2024-03-03T16:28:51.769Z,71.04
2024-03-03T16:31:24.445Z,71.47
2024-03-03T16:33:57.165Z,72.77
2024-03-03T16:36:30.468Z,74.10
2024-03-03T16:39:06.130Z,75.17
2024-03-03T16:41:52.053Z,75.54
2024-03-03T16:44:24.688Z,77.68
2024-03-03T16:46:57.491Z,78.72
2024-03-03T16:49:30.673Z,79.97
2024-03-03T16:52:03.791Z,80.61
2024-03-03T16:54:40.600Z,82.27
2024-03-03T16:57:13.304Z,82.97
2024-03-03T16:59:46.039Z,84.01
2024-03-03T17:02:23.113Z,84.35
2024-03-03T17:04:55.789Z,83.95
2024-03-03T17:07:29.240Z,84.79
2024-03-03T17:10:05.549Z,84.85
2024-03-03T17:12:39.283Z,84.88
2024-03-03T17:15:12.921Z,85.81
2024-03-03T17:17:45.818Z,85.92
2024-03-03T17:20:18.742Z,86.81
2024-03-03T17:22:51.535Z,86.60
2024-03-03T17:25:36.912Z,86.82
2024-03-03T17:28:13.467Z,87.52
2024-03-03T17:30:51.212Z,87.58
2024-03-03T17:33:26.423Z,88.00
2024-03-03T17:35:59.623Z,88.87
2024-03-03T17:38:34.500Z,89.73
2024-03-03T17:41:07.717Z,90.91
2024-03-03T17:43:40.478Z,91.88
2024-03-03T17:46:13.464Z,91.81
2024-03-03T17:48:46.332Z,93.46
2024-03-03T17:51:18.939Z,93.79
2024-03-03T17:53:52.598Z,95.03
2024-03-03T17:56:25.243Z,95.53
2024-03-03T17:58:57.984Z,96.23
2024-03-03T18:01:31.139Z,97.42
2024-03-03T18:04:05.284Z,97.69
2024-03-03T18:06:38.256Z,98.72
2024-03-03T18:09:12.731Z,99.55
2024-03-03T18:11:45.399Z,99.80
2024-03-03T18:14:18.088Z,100.00
2024-03-03T18:16:50.793Z,100.00
2024-03-03T18:19:23.538Z,100.00
2024-03-03T18:21:56.251Z,100.00
2024-03-03T18:24:32.761Z,100.00
2024-03-03T18:27:05.626Z,100.00
2024-03-03T18:29:38.756Z,100.00
2024-03-03T18:32:11.557Z,100.00
2024-03-03T18:34:44.267Z,100.00
2024-03-03T18:37:19.099Z,100.00
2024-03-03T18:39:55.362Z,100.00
2024-03-03T18:42:35.181Z,100.00
2024-03-03T18:45:08.396Z,100.00
2024-03-03T18:47:41.668Z,100.00
2024-03-03T18:50:20.960Z,100.00
2024-03-03T18:52:53.971Z,100.00
2024-03-03T18:55:27.539Z,100.00
2024-03-03T18:58:00.488Z,100.00
2024-03-03T19:00:33.285Z,100.00
2024-03-03T19:03:06.036Z,100.00
2024-03-03T19:05:39.372Z,100.00
2024-03-03T19:08:12.029Z,100.00
2024-03-03T19:10:46.361Z,100.00
2024-03-03T19:13:19.822Z,100.00
2024-03-03T19:15:54.241Z,100.00
2024-03-03T19:18:26.965Z,100.00
2024-03-03T19:21:02.362Z,100.00
2024-03-03T19:23:35.165Z,100.00
2024-03-03T19:26:35.139Z,100.00
2024-03-03T19:29:07.884Z,100.00
2024-03-03T19:31:40.601Z,100.00
2024-03-03T19:34:19.251Z,100.00
2024-03-03T19:36:52.049Z,100.00
2024-03-03T19:39:33.614Z,100.00
2024-03-03T19:42:07.201Z,100.00
2024-03-03T19:44:41.110Z,100.00
2024-03-03T19:47:13.840Z,100.00
2024-03-03T19:49:46.471Z,100.00
2024-03-03T19:52:19.457Z,100.00
2024-03-03T19:54:52.848Z,100.00
2024-03-03T19:57:28.178Z,100.00
2024-03-03T20:00:09.474Z,100.00
2024-03-03T20:02:50.929Z,100.00
2024-03-03T20:05:23.545Z,100.00
2024-03-03T20:07:56.262Z,100.00
2024-03-03T20:10:29.614Z,100.00
2024-03-03T20:13:05.131Z,100.00
2024-03-03T20:15:38.222Z,100.00
2024-03-03T20:18:11.045Z,100.00
2024-03-03T20:20:43.975Z,100.00
2024-03-03T20:23:16.731Z,100.00
2024-03-03T20:25:49.508Z,100.00
2024-03-03T20:28:22.248Z,100.00
2024-03-03T20:30:55.108Z,100.00
2024-03-03T20:33:31.362Z,100.00
2024-03-03T20:36:04.637Z,100.00
2024-03-03T20:38:45.444Z,100.00
2024-03-03T20:41:18.073Z,100.00
2024-03-03T20:43:52.573Z,100.00
2024-03-03T20:46:43.887Z,100.00
2024-03-03T20:49:18.992Z,100.00
2024-03-03T20:51:52.343Z,100.00
2024-03-03T20:54:25.078Z,100.00
2024-03-03T20:56:58.742Z,100.00
2024-03-03T20:59:32.509Z,100.00
2024-03-03T21:02:08.362Z,100.00
2024-03-03T21:04:43.899Z,100.00
2024-03-03T21:07:17.280Z,100.00
2024-03-03T21:09:50.179Z,100.00
2024-03-03T21:12:23.024Z,100.00
2024-03-03T21:14:55.745Z,100.00
2024-03-03T21:17:28.424Z,100.00
2024-03-03T21:20:01.081Z,100.00
2024-03-03T21:22:33.999Z,100.00
2024-03-03T21:25:08.611Z,100.00
2024-03-03T21:27:43.410Z,100.00
2024-03-03T21:30:16.269Z,100.00
2024-03-03T21:32:49.036Z,100.00
2024-03-03T21:35:22.032Z,100.00
2024-03-03T21:37:54.672Z,100.00
2024-03-03T21:40:31.617Z,100.00
2024-03-03T21:43:12.045Z,100.00
2024-03-03T21:45:45.302Z,100.00
2024-03-03T21:48:18.107Z,100.00
2024-03-03T21:50:53.639Z,100.00
2024-03-03T21:54:45.553Z,100.00
2024-03-03T21:57:37.330Z,100.00
2024-03-03T22:00:26.965Z,100.00
2024-03-03T22:07:26.848Z,100.00
